createdAt,value
2023-01-25T00:03:50.049Z,16.4
2023-01-25T00:09:56.215Z,16.4
2023-01-25T00:16:02.422Z,16.4
2023-01-25T00:22:08.610Z,16.4
2023-01-25T00:28:14.649Z,16.3
2023-01-25T00:34:20.363Z,16.4
2023-01-25T00:40:26.121Z,16.3
2023-01-25T00:46:31.915Z,16.3
2023-01-25T00:52:37.160Z,16.3
2023-01-25T00:58:43.464Z,16.3
2023-01-25T01:04:49.308Z,16.3
2023-01-25T01:10:55.291Z,16.3
2023-01-25T01:17:00.971Z,16.3
2023-01-25T01:23:07.242Z,16.3
2023-01-25T01:29:13.383Z,16.3
2023-01-25T01:35:20.170Z,16.3
2023-01-25T01:41:26.153Z,16.3
2023-01-25T01:47:32.326Z,16.3
2023-01-25T01:53:38.302Z,16.3
2023-01-25T01:59:43.961Z,16.3
2023-01-25T02:05:49.926Z,16.3
2023-01-25T02:11:56.257Z,16.3
2023-01-25T02:18:01.602Z,16.3
2023-01-25T02:24:07.737Z,16.3
2023-01-25T02:30:13.570Z,16.3
2023-01-25T02:36:20.041Z,16.3
2023-01-25T02:42:26.163Z,16.3
2023-01-25T02:48:32.131Z,16.3
2023-01-25T02:54:38.354Z,16.2
2023-01-25T03:00:44.327Z,16.3
2023-01-25T03:06:49.890Z,16.2
2023-01-25T03:12:56.092Z,16.3
2023-01-25T03:19:02.051Z,16.2
2023-01-25T03:25:08.498Z,16.2
2023-01-25T03:31:14.618Z,16.2
2023-01-25T03:37:21.521Z,16.2
2023-01-25T03:43:27.004Z,16.2
2023-01-25T03:49:33.192Z,16.2
2023-01-25T03:55:39.373Z,16.2
2023-01-25T04:01:45.574Z,16.2
2023-01-25T04:07:51.724Z,16.2
2023-01-25T04:13:57.722Z,16.2
2023-01-25T04:20:03.502Z,16.2
2023-01-25T04:26:09.511Z,16.2
2023-01-25T04:32:15.656Z,16.2
2023-01-25T04:38:22.458Z,16.2
2023-01-25T04:44:28.083Z,16.2
2023-01-25T04:50:34.018Z,16.3
2023-01-25T04:56:40.012Z,16.4
2023-01-25T05:02:46.064Z,16.4
2023-01-25T05:08:52.170Z,16.5
2023-01-25T05:14:58.387Z,16.6
2023-01-25T05:21:03.933Z,16.6
2023-01-25T05:27:10.160Z,16.7
2023-01-25T05:33:16.200Z,16.7
2023-01-25T05:39:22.093Z,16.8
2023-01-25T05:45:28.088Z,16.8
2023-01-25T05:51:33.837Z,16.9
2023-01-25T05:57:39.815Z,16.8
2023-01-25T06:03:45.879Z,16.8
2023-01-25T06:09:52.202Z,16.8
2023-01-25T06:15:58.405Z,16.8
2023-01-25T06:22:04.364Z,16.8
2023-01-25T06:28:10.116Z,16.8
2023-01-25T06:34:16.083Z,16.7
2023-01-25T06:40:22.693Z,16.7
2023-01-25T06:46:28.566Z,16.7
2023-01-25T06:52:34.662Z,16.7
2023-01-25T06:58:40.643Z,16.7
2023-01-25T07:04:46.409Z,16.7
2023-01-25T07:10:52.174Z,16.7
2023-01-25T07:16:58.176Z,16.8
2023-01-25T07:23:06.405Z,16.8
2023-01-25T07:29:12.606Z,16.8
2023-01-25T07:35:18.193Z,16.8
2023-01-25T07:41:24.775Z,16.8
2023-01-25T07:47:30.963Z,16.8
2023-01-25T07:53:38.843Z,16.9
2023-01-25T07:59:44.984Z,16.8
2023-01-25T08:05:51.168Z,16.8
2023-01-25T08:11:56.513Z,16.8
2023-01-25T08:18:02.486Z,16.8
2023-01-25T08:24:08.548Z,16.8
2023-01-25T08:30:14.719Z,16.8
2023-01-25T08:36:20.640Z,16.8
2023-01-25T08:42:26.841Z,16.8
2023-01-25T08:48:32.805Z,16.8
2023-01-25T08:54:39.202Z,16.8
2023-01-25T09:00:45.397Z,16.8
2023-01-25T09:06:51.566Z,16.8
2023-01-25T09:12:57.201Z,16.8
2023-01-25T09:19:03.175Z,16.8
2023-01-25T09:25:09.311Z,16.8
2023-01-25T09:31:21.916Z,16.8
2023-01-25T09:37:30.200Z,16.8
2023-01-25T09:43:36.252Z,16.7
2023-01-25T09:49:42.662Z,16.7
2023-01-25T09:55:48.463Z,16.7
2023-01-25T10:01:54.669Z,16.7
2023-01-25T10:08:00.599Z,16.6
2023-01-25T10:14:06.375Z,16.6
2023-01-25T10:20:12.353Z,16.6
2023-01-25T10:26:18.135Z,16.6
2023-01-25T10:32:24.339Z,16.6
2023-01-25T10:38:30.687Z,16.6
2023-01-25T10:44:36.286Z,16.5
2023-01-25T10:50:45.333Z,16.5
2023-01-25T10:56:51.402Z,16.5
2023-01-25T11:02:57.378Z,16.5
2023-01-25T11:09:03.500Z,16.5
2023-01-25T11:15:09.652Z,16.5
2023-01-25T11:21:15.021Z,16.5
2023-01-25T11:27:21.239Z,16.4
2023-01-25T11:33:27.206Z,16.5
2023-01-25T11:39:32.964Z,16.5
2023-01-25T11:45:38.965Z,16.4
2023-01-25T11:51:45.140Z,16.5
2023-01-25T11:57:54.002Z,16.5
2023-01-25T12:04:00.248Z,16.4
2023-01-25T12:10:05.608Z,16.4
2023-01-25T12:16:11.949Z,16.4
2023-01-25T12:22:17.923Z,16.4
2023-01-25T12:28:24.091Z,16.4
2023-01-25T12:34:30.285Z,16.4
2023-01-25T12:40:36.491Z,16.4
2023-01-25T12:46:42.304Z,16.4
2023-01-25T12:52:48.423Z,16.4
2023-01-25T12:58:54.612Z,16.4
2023-01-25T13:05:00.807Z,16.4
2023-01-25T13:11:06.644Z,16.4
2023-01-25T13:17:12.339Z,16.4
2023-01-25T13:23:18.052Z,16.4
2023-01-25T13:29:23.923Z,16.4
2023-01-25T13:35:30.084Z,16.4
2023-01-25T13:41:35.864Z,16.4
2023-01-25T13:47:41.453Z,16.4
2023-01-25T13:53:47.669Z,16.4
2023-01-25T13:59:54.327Z,16.4
2023-01-25T14:06:14.535Z,16.4
2023-01-25T14:12:20.956Z,16.5
2023-01-25T14:18:26.716Z,16.5
2023-01-25T14:24:33.092Z,16.6
2023-01-25T14:30:39.286Z,16.7
2023-01-25T14:36:45.046Z,16.8
2023-01-25T14:42:50.842Z,16.8
2023-01-25T14:48:56.609Z,16.8
2023-01-25T14:55:01.780Z,16.9
2023-01-25T15:01:08.168Z,16.9
2023-01-25T15:07:18.190Z,17
2023-01-25T15:13:24.655Z,17
2023-01-25T15:19:30.421Z,16.9
2023-01-25T15:25:36.637Z,16.9
2023-01-25T15:31:42.623Z,16.9
2023-01-25T15:37:49.335Z,16.9
2023-01-25T15:43:55.780Z,16.9
2023-01-25T15:50:01.761Z,16.9
2023-01-25T15:56:07.944Z,16.8
2023-01-25T16:02:13.974Z,16.8
2023-01-25T16:08:19.720Z,16.8
2023-01-25T16:14:25.687Z,16.8
2023-01-25T16:20:31.844Z,16.8
2023-01-25T16:26:37.675Z,16.8
2023-01-25T16:32:43.213Z,16.8
2023-01-25T16:38:48.688Z,16.9
2023-01-25T16:44:54.132Z,16.9
2023-01-25T16:51:00.356Z,16.9
2023-01-25T16:57:19.744Z,16.9
2023-01-25T17:03:26.003Z,16.9
2023-01-25T17:09:32.411Z,16.9
2023-01-25T17:15:38.418Z,16.9
2023-01-25T17:21:44.596Z,16.9
2023-01-25T17:27:50.572Z,16.9
2023-01-25T17:33:56.123Z,16.9
2023-01-25T17:40:02.327Z,16.9
2023-01-25T17:46:08.725Z,16.9
2023-01-25T17:52:14.354Z,16.9
2023-01-25T17:58:20.075Z,16.9
2023-01-25T18:04:25.719Z,16.9
2023-01-25T18:10:31.226Z,16.9
2023-01-25T18:16:37.181Z,16.9
2023-01-25T18:22:42.760Z,16.8
2023-01-25T18:28:49.442Z,16.8
2023-01-25T18:34:56.140Z,16.9
2023-01-25T18:41:02.137Z,16.9
2023-01-25T18:47:08.172Z,16.9
2023-01-25T18:53:13.884Z,16.9
2023-01-25T18:59:20.480Z,16.9
2023-01-25T19:05:26.485Z,16.9
2023-01-25T19:11:32.083Z,16.9
2023-01-25T19:17:37.396Z,16.9
2023-01-25T19:23:43.384Z,16.9
2023-01-25T19:29:49.372Z,16.9
2023-01-25T19:35:55.043Z,16.9
2023-01-25T19:42:01.142Z,16.9
2023-01-25T19:48:06.902Z,16.9
2023-01-25T19:54:13.092Z,16.9
2023-01-25T20:00:19.122Z,16.9
2023-01-25T20:06:24.853Z,16.9
2023-01-25T20:12:30.812Z,16.9
2023-01-25T20:18:36.272Z,16.9
2023-01-25T20:24:42.166Z,16.9
2023-01-25T20:30:47.982Z,16.9
2023-01-25T20:36:53.161Z,16.9
2023-01-25T20:42:58.887Z,16.9
2023-01-25T20:49:05.484Z,16.9
2023-01-25T20:55:11.328Z,16.9
2023-01-25T21:01:17.083Z,16.9
2023-01-25T21:07:23.237Z,16.8
2023-01-25T21:13:29.205Z,16.9
2023-01-25T21:19:34.777Z,16.8
2023-01-25T21:25:40.805Z,16.9
2023-01-25T21:31:47.188Z,16.8
2023-01-25T21:37:52.724Z,16.8
2023-01-25T21:43:58.702Z,16.8
2023-01-25T21:50:04.654Z,16.8
2023-01-25T21:56:11.260Z,16.7
2023-01-25T22:02:17.671Z,16.7
2023-01-25T22:08:23.251Z,16.7
2023-01-25T22:14:29.431Z,16.7
2023-01-25T22:20:35.418Z,16.7
2023-01-25T22:26:41.441Z,16.6
2023-01-25T22:32:47.181Z,16.6
2023-01-25T22:38:53.341Z,16.6
2023-01-25T22:44:59.132Z,16.6
2023-01-25T22:51:05.737Z,16.6
2023-01-25T22:57:11.686Z,16.5
2023-01-25T23:03:17.558Z,16.5
2023-01-25T23:09:23.659Z,16.5
2023-01-25T23:15:30.248Z,16.5
2023-01-25T23:21:36.040Z,16.4
2023-01-25T23:27:42.419Z,16.4
2023-01-25T23:33:48.612Z,16.4
2023-01-25T23:39:54.371Z,16.4
2023-01-25T23:46:00.616Z,16.4
2023-01-25T23:52:06.153Z,16.4
2023-01-25T23:58:11.695Z,16.4
